ADDS METAR Data INFO
IDs: Format: Raw Decoded Include TAF

Data at: 0302 UTC 17 Jan 2018

KIAG 170253Z 24013KT 9SM BKN024 OVC034 M08/M13 A3039 RMK AO2 SNB25E36 SLP313 P0000 60000 T10831133 51008
KIAG 170153Z 24015KT 7SM OVC032 M08/M12 A3039 RMK AO2 SNE38 SLP312 P0000 T10781122
KIAG 170053Z 23013KT 4SM -SN FEW036 OVC043 M07/M11 A3038 RMK AO2 SLP308 P0000 T10671106
KIAG 170020Z 23013KT 4SM -SN SCT012 BKN033 OVC050 M06/M10 A3038 RMK AO2 P0000 T10611100
KIAG 170012Z 24012KT 3SM -SN BKN012 BKN035 OVC050 M06/M10 A3038 RMK AO2 P0000 T10611100
KIAG 162353Z 22013KT 3SM -SN FEW011 BKN039 OVC060 M06/M10 A3037 RMK AO2 SLP305 P0000 60000 T10611100 11022 21061 53011
KIAG 162326Z 22011KT 3SM -SN SCT024 BKN038 OVC060 M06/M09 A3036 RMK AO2 P0000 T10561094
KIAG 162308Z 23012KT 3SM -SN OVC024 M05/M09 A3036 RMK AO2 P0000 T10501089
KIAG 162253Z 22009KT 2 1/2SM -SN OVC024 M05/M09 A3036 RMK AO2 SLP299 P0000 T10501089
KIAG 162221Z 21009KT 4SM -SN BKN024 OVC030 M04/M08 A3035 RMK AO2 P0000 T10441083
KIAG 162200Z 23006KT 2 1/2SM -SN OVC024 M04/M08 A3035 RMK AO2 P0000 T10391083
KIAG 162153Z 23008KT 3SM -SN BKN024 OVC055 M04/M08 A3035 RMK AO2 SNE13B48 SLP295 P0000 T10391083
KIAG 162103Z 25005KT 4SM -SN BKN027 OVC041 M04/M08 A3034 RMK AO2 P0000 T10391078
KIAG 162053Z 25004KT 4SM -SN SCT027 BKN037 OVC046 M03/M07 A3034 RMK AO2 SNB1955E08B45 SLP292 P0000 60000 T10331072 55000
KIAG 162028Z 27006KT 6SM HZ SCT017 OVC037 M03/M08 A3034 RMK AO2 SNB1955E08 P0000 T10331083
KIAG 161953Z 24007KT 5SM HZ BKN018 BKN024 OVC055 M03/M08 A3033 RMK AO2 SLP290 T10331078
KIAG 161925Z 22009KT 10SM SCT026 OVC050 M03/M08 A3034 RMK AO2 T10281083
KIAG 161853Z 21012KT 9SM BKN024 OVC050 M03/M09 A3034 RMK AO2 SLP292 T10281089
KIAG 161843Z 21010KT 10SM SCT022 BKN027 OVC050 M03/M08 A3034 RMK AO2 T10281083
KIAG 161753Z 24005KT 10SM FEW027 FEW050 M02/M08 A3034 RMK AO2 SLP291 T10221083 11022 21056 58014
KIAG 161700Z 24011KT 10SM FEW050 M03/M09 A3036 RMK AO2 T10281089
KIAG 161653Z 24010KT 10SM BKN011 M03/M09 A3037 RMK AO2 SLP302 T10331089
KIAG 161553Z 23010KT 9SM BKN011 BKN055 M04/M07 A3038 RMK AO2 SLP307 T10391072
KIAG 161453Z 23010KT 7SM BKN013 OVC055 M04/M07 A3038 RMK AO2 SLP306 T10391072 53019
KIAG 161437Z 24011KT 8SM BKN013 OVC055 M03/M07 A3037 RMK AO2 T10331072
KIAG 161400Z 23005KT 7SM SCT055 M05/M07 A3035 RMK AO2 T10501067
KIAG 161353Z 22006KT 7SM BKN015 BKN020 OVC055 M05/M07 A3035 RMK AO2 SLP297 T10501072
KIAG 161253Z 23006KT 9SM BKN015 OVC060 M03/M06 A3034 RMK AO2 SLP293 T10331061
KIAG 161244Z 24007KT 9SM BKN015 OVC060 M03/M06 A3034 RMK AO2 T10331061
KIAG 161153Z 20005KT 8SM FEW017 BKN060 M05/M08 A3032 RMK AO2 SNE05 SLP288 P0000 60000 70002 T10501078 11033 21061 53009
KIAG 161053Z AUTO 20006KT 6SM -SN OVC060 M04/M07 A3031 RMK AO2 SLP284 P0000 T10391072
KIAG 161020Z AUTO 19005KT 4SM -SN SCT015 BKN030 OVC055 M03/M07 A3031 RMK AO2 P0000 T10331072
KIAG 160953Z AUTO 20006KT 5SM -SN BKN014 BKN022 OVC055 M03/M07 A3030 RMK AO2 SLP280 P0000 T10331072
KIAG 160945Z AUTO 21005KT 6SM -SN BKN014 BKN022 OVC042 M03/M07 A3030 RMK AO2 P0000 T10331072
KIAG 160853Z AUTO 18005KT 6SM -SN BKN022 OVC027 M04/M08 A3029 RMK AO2 SNB37 SLP278 P0000 60000 T10391078 53003
KIAG 160753Z AUTO 19006KT 10SM BKN025 OVC031 M04/M08 A3030 RMK AO2 SLP278 T10391078
KIAG 160705Z AUTO 00000KT 10SM SCT024 OVC032 M04/M07 A3029 RMK AO2 T10441072
KIAG 160653Z AUTO 18003KT 7SM BKN026 OVC032 M05/M08 A3028 RMK AO2 SNB30E47 SLP276 P0000 T10501078
KIAG 160632Z AUTO 18004KT 6SM -SN BKN026 OVC033 M05/M08 A3028 RMK AO2 SNB30 P0000 T10501083
KIAG 160553Z AUTO 16003KT 10SM BKN060 OVC090 M06/M09 A3029 RMK AO2 SLP277 60002 T10561089 11056 21067 56014
KIAG 160453Z AUTO 14003KT 10SM OVC065 M06/M09 A3029 RMK AO2 SNE34 SLP280 P0000 T10611089 410561161
KIAG 160353Z 15005KT 3SM -SN BKN039 OVC070 M06/M09 A3031 RMK AO2 SLP288 P0000 T10611089
KIAG 160333Z 13004KT 2 1/2SM -SN OVC033 M06/M09 A3032 RMK AO2 P0000 T10611089
KIAG 160313Z 12006KT 3SM -SN OVC029 M06/M09 A3032 RMK AO2 P0000 T10611094
KIAG 160253Z 12006KT 1 1/2SM -SN OVC023 M06/M09 A3033 RMK AO2 SLP292 P0001 60002 T10611094 58006
KIAG 160153Z 12006KT 1 1/2SM -SN OVC018 M06/M09 A3034 RMK AO2 SLP296 P0001 T10611094
KIAG 160137Z 12006KT 1SM R28R/P6000FT -SN VV018 M06/M09 A3034 RMK AO2 P0001 T10611094
KIAG 160102Z 11006KT 1 1/2SM -SN OVC025 M07/M10 A3034 RMK AO2 P0000 T10671100
KIAG 160053Z 10007KT 2SM -SN OVC029 M07/M11 A3034 RMK AO2 SLP299 P0000 T10671106
KIAG 152353Z 10007KT 2 1/2SM -SN OVC031 M06/M11 A3035 RMK AO2 SLP300 P0000 60000 T10611106 11056 21078 58005
KIAG 152336Z 09007KT 2 1/2SM -SN OVC027 M06/M11 A3035 RMK AO2 P0000 T10561106
KIAG 152253Z 09006KT 6SM -SN OVC037 M06/M11 A3035 RMK AO2 SNB34 SLP302 P0000 T10561106
KIAG 152153Z 13006KT 10SM OVC045 M06/M12 A3037 RMK AO2 SNB10E23 SLP309 P0000 T10561117
KIAG 152053Z 07006KT 9SM BKN044 OVC055 M06/M13 A3036 RMK AO2 SNB22E33 SLP305 P0000 60000 T10611128 56018
KIAG 151953Z 07005KT 9SM OVC037 M06/M14 A3038 RMK AO2 SLP312 T10611139
KIAG 151853Z 07006KT 10SM FEW090 M07/M14 A3039 RMK AO2 SLP315 T10671144
KIAG 151753Z 05004KT 10SM OVC090 M08/M15 A3041 RMK AO2 SLP324 T10781150 11078 21128 58029
KIAG 151653Z 13005KT 10SM OVC095 M09/M16 A3045 RMK AO2 SLP339 T10891161
KIAG 151553Z 09006KT 10SM BKN110 M10/M16 A3048 RMK AO2 SLP347 T11001161